Latest Weather Observations for Winton

IDQ60801

Issued at 7:02 pm EST Saturday 23 July 2016 (issued every 30 minutes, with the page automatically refreshed every 10 minutes)

About weather observations | Map of weather stations | Latest weather observations for QLD | Other Formats
Station Details ID: 037039 Name: WINTON AIRPORT Lat: -22.36 Lon: 143.08 Height: 192.2 m
Data from the previous 72 hours. | See also: Recent months at Winton
Date/Time
EST
Temp
°C
App
Temp
°C
Dew
Point
°C
Rel
Hum
%
Delta-T
°C
Wind Press
QNH
hPa
Press
MSL
hPa
Rain since
9am
mm
Dir  Spd
km/h
Gust
km/h
Spd
kts
Gust
kts
23/07:00pm 21.8 22.6 15.9 69 3.6 SSE 6 7 3 4 1015.1 1014.8 0.0
23/06:30pm 21.7 22.6 16.6 73 3.1 SSW 7 9 4 5 1014.9 1014.6 0.0
23/06:00pm 23.8 24.6 15.8 61 4.9 S 6 9 3 5 1014.7 1014.4 0.0
23/05:30pm 25.3 25.6 15.9 56 5.8 SSE 9 15 5 8 1014.4 1014.1 0.0
23/05:00pm 26.1 25.1 15.5 52 6.5 SE 15 19 8 10 1014.0 1013.7 0.0
23/04:30pm 26.7 26.2 16.0 52 6.6 SE 13 17 7 9 1013.9 1013.6 0.0
23/04:00pm 27.0 27.0 16.3 52 6.7 ESE 11 17 6 9 1013.8 1013.5 0.0
23/03:30pm 27.0 27.6 15.7 50 7.0 ESE 7 13 4 7 1013.8 1013.5 0.0
23/03:00pm 27.1 27.0 16.1 51 6.8 SE 11 20 6 11 1013.7 1013.4 0.0
23/02:30pm 27.5 28.1 16.8 52 6.7 ESE 9 15 5 8 1013.8 1013.5 0.0
23/02:00pm 27.1 27.9 15.8 50 7.0 S 6 9 3 5 1014.1 1013.8 0.0
23/01:30pm 26.8 28.1 17.0 55 6.2 SSW 6 11 3 6 1014.4 1014.1 0.0
23/01:00pm 26.6 27.4 17.4 57 5.8 SW 9 15 5 8 1014.8 1014.5 0.0
23/12:30pm 26.2 27.2 17.8 60 5.3 SW 9 13 5 7 1015.3 1015.0 0.0
23/12:00pm 26.3 26.8 17.4 58 5.6 SSW 11 15 6 8 1015.6 1015.3 0.0
23/11:30am 26.4 27.7 17.5 58 5.6 SSW 7 11 4 6 1015.8 1015.5 0.0
23/11:00am 25.8 27.4 16.9 58 5.6 E 4 9 2 5 1016.1 1015.7 0.0
23/10:30am 24.9 27.9 18.4 67 4.1 CALM 0 2 0 1 1016.3 1015.9 0.0
23/10:00am 23.3 26.3 19.2 78 2.6 WSW 2 4 1 2 1016.4 1016.0 0.0
23/09:30am 22.7 25.2 19.1 80 2.3 W 4 6 2 3 1016.3 1015.9 0.0
23/09:00am 21.8 24.1 19.4 86 1.5 NE 6 7 3 4 1015.7 1015.4 0.0
23/08:30am 20.4 22.8 19.7 96 0.4 NE 6 6 3 3 1015.5 1015.2 0.0
23/08:00am 19.1 21.3 19.1 100 0.0 NNE 6 6 3 3 1015.5 1015.2 0.0
23/07:30am 17.6 20.2 17.6 100 0.0 CALM 0 0 0 0 1015.2 1014.9 0.0
23/07:00am 17.8 19.4 17.8 100 0.0 SW 6 6 3 3 1015.1 1014.8 0.0
23/06:30am 18.1 21.0 18.1 100 0.0 CALM 0 0 0 0 1014.7 1014.4 0.0
23/06:00am 18.6 21.7 18.6 100 0.0 CALM 0 0 0 0 1014.4 1014.1 0.0
23/05:30am 18.8 22.0 18.8 100 0.0 CALM 0 0 0 0 1014.2 1013.9 0.0
23/05:00am 18.8 22.0 18.8 100 0.0 CALM 0 0 0 0 1014.1 1013.8 0.0
23/04:30am 19.0 22.2 18.8 99 0.1 CALM 0 0 0 0 1013.9 1013.6 0.0
23/04:00am 19.4 22.1 19.4 100 0.0 SE 4 6 2 3 1014.0 1013.7 0.0
23/03:30am 19.3 21.9 19.3 100 0.0 ESE 4 6 2 3 1013.9 1013.6 0.0
23/03:00am 19.3 21.9 19.3 100 0.0 ESE 4 6 2 3 1014.0 1013.7 0.0
23/02:30am 19.5 22.2 19.5 100 0.0 ESE 4 4 2 2 1014.0 1013.7 0.0
23/02:00am 19.4 21.9 19.1 98 0.2 ESE 4 6 2 3 1014.1 1013.8 0.0
23/01:30am 19.6 21.9 19.4 99 0.1 ESE 6 6 3 3 1014.1 1013.8 0.0
23/01:00am 19.7 22.1 18.7 94 0.6 E 4 6 2 3 1014.2 1013.9 0.0
23/12:30am 20.3 23.2 19.0 92 0.8 ENE 2 4 1 2 1014.1 1013.8 0.0
23/12:00am 20.3 22.8 19.0 92 0.8 NE 4 4 2 2 1014.2 1013.9 0.0
 
Date/Time
EST
Temp
°C
App
Temp
°C
Dew
Point
°C
Rel
Hum
%
Delta-T
°C
Wind Press
QNH
hPa
Press
MSL
hPa
Rain since
9am
mm
Dir  Spd
km/h
Gust
km/h
Spd
kts
Gust
kts
22/11:30pm 20.3 22.7 18.8 91 0.9 ENE 4 6 2 3 1014.3 1014.0 0.0
22/11:00pm 20.5 22.2 18.4 88 1.3 NE 7 9 4 5 1014.5 1014.2 0.0
22/10:30pm 21.4 23.6 19.1 87 1.5 NNE 6 6 3 3 1014.4 1014.1 0.0
22/10:00pm 21.6 23.6 19.2 86 1.5 NE 7 9 4 5 1014.3 1014.0 0.0
22/09:30pm 21.7 23.9 19.3 86 1.5 NE 6 6 3 3 1014.3 1014.0 0.0
22/09:00pm 22.4 24.5 19.0 81 2.2 ENE 6 7 3 4 1014.4 1014.1 0.0
22/08:30pm 22.9 25.5 19.3 80 2.3 NE 4 6 2 3 1014.3 1014.0 0.0
22/08:00pm 23.8 26.5 18.7 73 3.3 SE 2 2 1 1 1014.3 1014.0 0.0
22/07:30pm 24.8 27.5 18.7 69 3.9 SE 2 2 1 1 1014.0 1013.7 0.0
22/07:00pm 25.3 28.4 18.7 67 4.2 CALM 0 0 0 0 1013.7 1013.4 0.0
22/06:30pm 25.3 28.6 19.2 69 3.9 CALM 0 0 0 0 1013.6 1013.3 0.0
22/06:00pm 26.8 29.9 18.6 60 5.3 CALM 0 0 0 0 1013.5 1013.2 0.0
22/05:30pm 27.9 30.7 18.0 55 6.3 CALM 0 2 0 1 1013.5 1013.2 0.0
22/05:00pm 28.0 30.5 18.1 55 6.3 SE 2 4 1 2 1013.4 1013.1 0.0
22/04:30pm 28.1 30.7 18.5 56 6.2 SE 2 6 1 3 1013.3 1013.0 0.0
22/04:00pm 28.3 30.0 18.1 54 6.5 SSE 6 9 3 5 1013.3 1013.0 0.0
22/03:30pm 28.8 31.1 18.6 54 6.6 ESE 4 7 2 4 1013.3 1013.0 0.0
22/03:00pm 28.9 31.5 19.2 55 6.3 SE 4 13 2 7 1013.5 1013.2 0.0
22/02:30pm 28.5 30.8 18.6 55 6.4 E 4 7 2 4 1013.7 1013.4 0.0
22/02:00pm 28.1 29.8 18.5 56 6.2 ENE 7 13 4 7 1014.0 1013.7 0.0
22/01:30pm 28.1 30.1 18.8 57 6.0 NNE 6 11 3 6 1014.5 1014.2 0.0
22/01:00pm 27.6 29.6 19.1 59 5.5 NNE 7 13 4 7 1015.0 1014.7 0.0
22/12:30pm 27.3 29.3 19.1 61 5.3 NNE 7 17 4 9 1015.5 1015.2 0.0
22/12:00pm 27.1 28.7 19.2 62 5.1 NNE 9 15 5 8 1016.0 1015.6 0.0
22/11:30am 26.4 27.6 19.0 63 4.8 NNE 11 17 6 9 1016.4 1016.0 0.0
22/11:00am 25.3 27.3 19.2 69 3.9 NNE 7 13 4 7 1016.7 1016.3 0.0
22/10:30am 23.6 25.8 19.3 77 2.8 NNE 6 13 3 7 1017.0 1016.6 0.0
22/10:00am 23.1 23.9 19.1 78 2.6 NE 13 20 7 11 1017.0 1016.6 0.0
22/09:30am 22.4 23.5 19.6 84 1.8 NE 13 15 7 8 1016.8 1016.4 0.0
22/09:00am 21.2 22.5 19.3 89 1.2 NE 11 15 6 8 1016.7 1016.3 0.0
22/08:30am 20.2 21.3 18.9 92 0.8 NE 11 15 6 8 1016.6 1016.2 0.0
22/08:00am 19.8 21.7 19.0 95 0.5 NE 7 11 4 6 1016.4 1016.0 0.0
22/07:30am 19.5 19.8 18.7 95 0.5 ENE 15 17 8 9 1016.1 1015.7 0.0
22/07:00am 19.4 20.4 18.7 96 0.4 NE 11 15 6 8 1016.0 1015.6 0.0
22/06:30am 19.3 20.8 18.8 97 0.3 NE 9 13 5 7 1015.7 1015.4 0.0
22/06:00am 19.3 20.8 19.0 98 0.2 ENE 9 11 5 6 1015.6 1015.3 0.0
22/05:30am 19.1 20.6 18.9 99 0.1 E 9 9 5 5 1015.5 1015.2 0.0
22/05:00am 18.8 20.3 18.8 100 0.0 E 9 11 5 6 1015.3 1015.0 0.0
22/04:30am 18.6 20.0 18.6 100 0.0 E 9 11 5 6 1015.2 1014.9 0.0
22/04:00am 18.8 19.8 18.6 99 0.1 E 11 11 6 6 1015.2 1014.9 0.0
22/03:30am 18.9 20.4 18.9 100 0.0 E 9 11 5 6 1015.4 1015.1 0.0
22/03:00am 18.9 20.4 18.9 100 0.0 E 9 9 5 5 1015.6 1015.3 0.0
22/02:30am 18.9 20.7 18.7 99 0.1 E 7 9 4 5 1015.8 1015.5 0.0
22/02:00am 19.3 21.3 19.1 99 0.1 ESE 7 9 4 5 1016.0 1015.6 0.0
22/01:30am 19.4 21.4 19.2 99 0.1 ESE 7 9 4 5 1016.3 1015.9 0.0
22/01:00am 19.5 21.6 19.3 99 0.1 E 7 7 4 4 1016.5 1016.1 0.0
22/12:30am 19.8 22.0 19.6 99 0.1 E 7 9 4 5 1016.4 1016.0 0.0
22/12:00am 19.9 21.9 19.2 96 0.4 E 7 9 4 5 1016.4 1016.0 0.0
 
Date/Time
EST
Temp
°C
App
Temp
°C
Dew
Point
°C
Rel
Hum
%
Delta-T
°C
Wind Press
QNH
hPa
Press
MSL
hPa
Rain since
9am
mm
Dir  Spd
km/h
Gust
km/h
Spd
kts
Gust
kts
21/11:30pm 20.4 22.8 19.7 96 0.4 ESE 6 6 3 3 1016.5 1016.1 0.0
21/11:00pm 20.5 22.9 19.7 95 0.5 E 6 7 3 4 1016.7 1016.3 0.0
21/10:30pm 21.0 23.3 19.8 93 0.8 E 7 7 4 4 1016.6 1016.2 0.0
21/10:00pm 21.6 23.9 19.9 90 1.1 E 7 9 4 5 1016.5 1016.1 0.0
21/09:30pm 22.1 24.1 20.0 88 1.4 E 9 11 5 6 1016.5 1016.1 0.0
21/09:00pm 22.3 24.6 20.6 90 1.1 E 9 11 5 6 1016.4 1016.0 0.0
21/08:30pm 22.3 24.7 20.8 91 1.0 E 9 11 5 6 1016.1 1015.7 0.0
21/08:00pm 22.6 25.3 20.7 89 1.2 E 7 9 4 5 1015.8 1015.5 0.0
21/07:30pm 23.0 25.4 20.9 88 1.4 E 9 9 5 5 1015.6 1015.3 0.0
21/07:00pm 23.5 25.9 20.8 85 1.8 E 9 9 5 5 1015.4 1015.1 0.0
21/06:30pm 24.2 27.0 20.5 80 2.4 ENE 6 7 3 4 1015.2 1014.9 0.0
21/06:00pm 25.3 27.7 20.1 73 3.4 ENE 7 7 4 4 1014.9 1014.6 0.0
21/05:30pm 27.0 29.3 19.4 63 4.9 ENE 6 9 3 5 1014.9 1014.6 0.0
21/05:00pm 27.6 29.9 19.4 61 5.3 NE 6 9 3 5 1014.7 1014.4 0.0
21/04:30pm 27.9 30.0 19.4 60 5.5 NE 7 13 4 7 1014.7 1014.4 0.0
21/04:00pm 26.9 28.8 19.0 62 5.1 NE 7 9 4 5 1014.8 1014.5 0.0
21/03:30pm 27.9 29.8 18.9 58 5.8 ENE 7 13 4 7 1014.9 1014.6 0.0
21/03:00pm 27.3 28.8 18.9 60 5.4 N 9 13 5 7 1015.1 1014.8 0.0
21/02:30pm 28.0 29.2 19.0 58 5.8 NE 11 22 6 12 1015.3 1015.0 0.0
21/02:00pm 27.2 27.8 18.5 59 5.6 NE 13 20 7 11 1015.6 1015.3 0.0
21/01:30pm 27.3 28.0 18.9 60 5.4 NNE 13 22 7 12 1016.0 1015.6 0.0
21/01:00pm 27.0 27.8 19.1 62 5.1 NNE 13 20 7 11 1016.4 1016.0 0.0
21/12:30pm 26.9 27.1 19.3 63 4.9 NNE 17 28 9 15 1016.9 1016.5 0.0
21/12:00pm 26.7 27.2 19.3 64 4.8 NE 15 22 8 12 1017.3 1016.9 0.0
21/11:30am 26.4 27.0 19.5 66 4.5 NE 15 20 8 11 1017.6 1017.3 0.0
21/11:00am 25.5 26.8 20.1 72 3.5 NE 13 17 7 9 1017.8 1017.5 0.0
21/10:30am 24.6 25.8 19.9 75 3.1 NNE 13 17 7 9 1018.1 1017.8 0.0
21/10:00am 23.8 25.4 19.9 79 2.5 ENE 11 17 6 9 1018.3 1018.0 0.0
21/09:30am 22.8 25.0 20.3 86 1.6 ENE 9 13 5 7 1018.2 1017.9 0.0
21/09:00am 21.9 24.5 20.4 91 1.0 E 7 9 4 5 1018.3 1018.0 2.0
21/08:30am 20.5 24.5 20.5 100 0.0 CALM 0 2 0 1 1018.0 1017.7 1.8
21/08:00am 20.1 23.1 20.1 100 0.0 SE 4 6 2 3 1017.7 1017.4 1.8
21/07:30am 19.6 22.0 19.6 100 0.0 ESE 6 6 3 3 1017.5 1017.2 1.8
21/07:00am 19.5 22.2 19.5 100 0.0 ESE 4 6 2 3 1017.3 1016.9 1.8
21/06:30am 19.5 22.2 19.5 100 0.0 SE 4 4 2 2 1017.0 1016.6 1.8
21/06:00am 19.6 22.0 19.6 100 0.0 E 6 7 3 4 1016.7 1016.3 1.8
21/05:30am 20.0 23.0 20.0 100 0.0 E 4 7 2 4 1016.6 1016.2 1.8
21/05:00am 19.9 22.4 19.9 100 0.0 ESE 6 7 3 4 1016.5 1016.1 1.8
21/04:30am 20.1 22.1 19.9 99 0.1 E 9 11 5 6 1016.5 1016.1 1.8
21/04:00am 20.1 22.1 19.9 99 0.1 ENE 9 11 5 6 1016.6 1016.2 1.8
21/03:30am 20.1 22.2 20.1 100 0.0 ENE 9 11 5 6 1016.6 1016.2 1.8
21/03:00am 20.1 21.7 19.9 99 0.1 ENE 11 13 6 7 1016.7 1016.3 1.8
21/02:30am 20.2 21.9 20.2 100 0.0 ENE 11 15 6 8 1016.9 1016.5 1.8
21/02:00am 20.0 21.6 20.0 100 0.0 ENE 11 13 6 7 1017.2 1016.8 1.8
21/01:30am 20.1 22.2 20.1 100 0.0 E 9 13 5 7 1017.5 1017.2 1.8
21/01:00am 20.3 22.8 20.3 100 0.0 E 7 11 4 6 1017.7 1017.4 1.8
21/12:30am 20.4 22.6 20.4 100 0.0 E 9 13 5 7 1017.8 1017.5 1.8
21/12:00am 20.6 23.3 20.6 100 0.0 E 7 9 4 5 1018.1 1017.8 1.8
 
Date/Time
EST
Temp
°C
App
Temp
°C
Dew
Point
°C
Rel
Hum
%
Delta-T
°C
Wind Press
QNH
hPa
Press
MSL
hPa
Rain since
9am
mm
Dir  Spd
km/h
Gust
km/h
Spd
kts
Gust
kts
20/11:30pm 20.7 23.0 20.7 100 0.0 E 9 11 5 6 1018.1 1017.8 1.8
20/11:00pm 21.0 23.5 21.0 100 0.0 E 9 11 5 6 1018.1 1017.8 1.8
20/10:30pm 21.2 24.2 21.2 100 0.0 E 7 11 4 6 1018.4 1018.1 1.8
20/10:00pm 21.3 23.8 21.1 99 0.1 ESE 9 11 5 6 1018.2 1017.9 1.8
20/09:30pm 21.5 24.1 21.2 98 0.2 E 9 13 5 7 1018.2 1017.9 1.8
20/09:00pm 21.6 24.4 21.6 100 0.0 ESE 9 11 5 6 1018.0 1017.7 1.8
20/08:30pm 21.5 24.6 21.5 100 0.0 ESE 7 9 4 5 1017.7 1017.4 1.8
20/08:00pm 21.4 24.1 21.4 100 0.0 SE 9 11 5 6 1017.2 1016.8 1.8
20/07:30pm 21.5 24.6 21.5 100 0.0 SE 7 7 4 4 1017.0 1016.6 1.8

Other Formats:

Comma delimited format used in spreadsheet applications
http://www.bom.gov.au/fwo/IDQ60801/IDQ60801.94342.axf

JavaScript Object Notation format (JSON) in row-major order
http://www.bom.gov.au/fwo/IDQ60801/IDQ60801.94342.json